sensor_id;sensor_type;location;lat;lon;timestamp;P1;durP1;ratioP1;P2;durP2;ratioP2
47161;SDS011;32921;53.256;8.198;2024-01-16T00:01:06;512.63;;;477.70;;
47161;SDS011;32921;53.256;8.198;2024-01-16T00:03:32;539.65;;;503.25;;
47161;SDS011;32921;53.256;8.198;2024-01-16T00:05:58;514.17;;;479.63;;
47161;SDS011;32921;53.256;8.198;2024-01-16T00:08:24;551.35;;;513.67;;
47161;SDS011;32921;53.256;8.198;2024-01-16T00:10:52;521.83;;;487.05;;
47161;SDS011;32921;53.256;8.198;2024-01-16T00:13:18;534.88;;;498.77;;
47161;SDS011;32921;53.256;8.198;2024-01-16T00:15:43;514.95;;;479.63;;
47161;SDS011;32921;53.256;8.198;2024-01-16T00:18:09;485.23;;;452.70;;
47161;SDS011;32921;53.256;8.198;2024-01-16T00:20:35;544.80;;;507.70;;
47161;SDS011;32921;53.256;8.198;2024-01-16T00:23:00;516.15;;;480.48;;
47161;SDS011;32921;53.256;8.198;2024-01-16T00:25:26;555.30;;;517.08;;
47161;SDS011;32921;53.256;8.198;2024-01-16T00:27:52;513.30;;;477.92;;
47161;SDS011;32921;53.256;8.198;2024-01-16T00:30:19;522.28;;;486.02;;
47161;SDS011;32921;53.256;8.198;2024-01-16T00:32:45;521.72;;;485.98;;
47161;SDS011;32921;53.256;8.198;2024-01-16T00:35:10;499.40;;;465.80;;
47161;SDS011;32921;53.256;8.198;2024-01-16T00:37:36;527.70;;;491.35;;
47161;SDS011;32921;53.256;8.198;2024-01-16T00:40:03;479.90;;;447.00;;
47161;SDS011;32921;53.256;8.198;2024-01-16T00:42:29;499.23;;;465.15;;
47161;SDS011;32921;53.256;8.198;2024-01-16T00:44:56;503.38;;;468.92;;
47161;SDS011;32921;53.256;8.198;2024-01-16T00:47:22;514.03;;;479.13;;
47161;SDS011;32921;53.256;8.198;2024-01-16T00:49:48;536.63;;;499.35;;
47161;SDS011;32921;53.256;8.198;2024-01-16T00:52:14;484.30;;;451.90;;
47161;SDS011;32921;53.256;8.198;2024-01-16T00:54:40;508.90;;;474.10;;
47161;SDS011;32921;53.256;8.198;2024-01-16T00:57:06;487.67;;;454.38;;
47161;SDS011;32921;53.256;8.198;2024-01-16T00:59:32;467.80;;;436.40;;
47161;SDS011;32921;53.256;8.198;2024-01-16T01:01:58;489.25;;;455.58;;
47161;SDS011;32921;53.256;8.198;2024-01-16T01:04:23;474.67;;;442.83;;
47161;SDS011;32921;53.256;8.198;2024-01-16T01:06:49;456.55;;;424.90;;
47161;SDS011;32921;53.256;8.198;2024-01-16T01:09:15;467.40;;;435.05;;
47161;SDS011;32921;53.256;8.198;2024-01-16T01:11:41;498.42;;;463.25;;
47161;SDS011;32921;53.256;8.198;2024-01-16T01:14:07;463.55;;;431.02;;
47161;SDS011;32921;53.256;8.198;2024-01-16T01:16:33;463.38;;;430.35;;
47161;SDS011;32921;53.256;8.198;2024-01-16T01:18:58;472.20;;;438.45;;
47161;SDS011;32921;53.256;8.198;2024-01-16T01:21:24;471.58;;;438.25;;
47161;SDS011;32921;53.256;8.198;2024-01-16T01:23:50;483.27;;;449.27;;
47161;SDS011;32921;53.256;8.198;2024-01-16T01:26:16;465.88;;;433.85;;
47161;SDS011;32921;53.256;8.198;2024-01-16T01:28:44;446.33;;;414.15;;
47161;SDS011;32921;53.256;8.198;2024-01-16T01:31:10;414.00;;;386.15;;
47161;SDS011;32921;53.256;8.198;2024-01-16T01:33:36;419.52;;;391.58;;
47161;SDS011;32921;53.256;8.198;2024-01-16T01:36:02;462.17;;;429.50;;
47161;SDS011;32921;53.256;8.198;2024-01-16T01:38:27;411.23;;;383.10;;
47161;SDS011;32921;53.256;8.198;2024-01-16T01:40:53;402.92;;;375.15;;
47161;SDS011;32921;53.256;8.198;2024-01-16T01:43:25;466.73;;;432.75;;
47161;SDS011;32921;53.256;8.198;2024-01-16T01:48:40;580.38;;;535.90;;
47161;SDS011;32921;53.256;8.198;2024-01-16T01:51:06;520.95;;;479.73;;
47161;SDS011;32921;53.256;8.198;2024-01-16T01:53:36;488.63;;;451.70;;
47161;SDS011;32921;53.256;8.198;2024-01-16T01:56:04;406.23;;;377.48;;
47161;SDS011;32921;53.256;8.198;2024-01-16T01:58:36;432.80;;;401.73;;
47161;SDS011;32921;53.256;8.198;2024-01-16T02:01:06;482.92;;;446.05;;
47161;SDS011;32921;53.256;8.198;2024-01-16T02:03:32;431.90;;;400.17;;
47161;SDS011;32921;53.256;8.198;2024-01-16T02:06:04;477.33;;;440.17;;
47161;SDS011;32921;53.256;8.198;2024-01-16T02:08:30;429.83;;;397.30;;
47161;SDS011;32921;53.256;8.198;2024-01-16T02:10:56;397.58;;;368.98;;
47161;SDS011;32921;53.256;8.198;2024-01-16T02:13:21;464.00;;;428.77;;
47161;SDS011;32921;53.256;8.198;2024-01-16T02:15:48;424.45;;;392.77;;
47161;SDS011;32921;53.256;8.198;2024-01-16T02:18:15;442.17;;;409.67;;
47161;SDS011;32921;53.256;8.198;2024-01-16T02:20:41;430.75;;;398.08;;
47161;SDS011;32921;53.256;8.198;2024-01-16T02:23:07;437.98;;;403.98;;
47161;SDS011;32921;53.256;8.198;2024-01-16T02:25:35;421.10;;;390.13;;
47161;SDS011;32921;53.256;8.198;2024-01-16T02:28:01;368.60;;;341.48;;
47161;SDS011;32921;53.256;8.198;2024-01-16T02:30:28;368.25;;;341.92;;
47161;SDS011;32921;53.256;8.198;2024-01-16T02:32:53;383.02;;;354.27;;
47161;SDS011;32921;53.256;8.198;2024-01-16T02:35:19;364.35;;;338.55;;
47161;SDS011;32921;53.256;8.198;2024-01-16T02:37:44;396.73;;;366.88;;
47161;SDS011;32921;53.256;8.198;2024-01-16T02:40:10;447.70;;;412.50;;
47161;SDS011;32921;53.256;8.198;2024-01-16T02:42:36;401.50;;;371.27;;
47161;SDS011;32921;53.256;8.198;2024-01-16T02:45:05;459.75;;;423.20;;
47161;SDS011;32921;53.256;8.198;2024-01-16T02:47:31;493.90;;;455.55;;
47161;SDS011;32921;53.256;8.198;2024-01-16T02:49:57;458.02;;;423.05;;
47161;SDS011;32921;53.256;8.198;2024-01-16T02:52:24;525.88;;;483.65;;
47161;SDS011;32921;53.256;8.198;2024-01-16T02:54:49;494.92;;;454.65;;
47161;SDS011;32921;53.256;8.198;2024-01-16T02:57:15;523.35;;;481.70;;
47161;SDS011;32921;53.256;8.198;2024-01-16T02:59:43;584.25;;;537.97;;
47161;SDS011;32921;53.256;8.198;2024-01-16T03:02:09;602.08;;;554.78;;
47161;SDS011;32921;53.256;8.198;2024-01-16T03:04:35;571.20;;;526.00;;
47161;SDS011;32921;53.256;8.198;2024-01-16T03:07:00;614.83;;;565.17;;
47161;SDS011;32921;53.256;8.198;2024-01-16T03:09:26;612.20;;;564.50;;
47161;SDS011;32921;53.256;8.198;2024-01-16T03:11:51;590.83;;;545.00;;
47161;SDS011;32921;53.256;8.198;2024-01-16T03:14:17;581.55;;;535.63;;
47161;SDS011;32921;53.256;8.198;2024-01-16T03:16:43;623.13;;;575.08;;
47161;SDS011;32921;53.256;8.198;2024-01-16T03:19:09;549.90;;;508.55;;
47161;SDS011;32921;53.256;8.198;2024-01-16T03:21:37;627.22;;;579.08;;
47161;SDS011;32921;53.256;8.198;2024-01-16T03:24:03;547.45;;;504.58;;
47161;SDS011;32921;53.256;8.198;2024-01-16T03:26:30;591.72;;;545.88;;
47161;SDS011;32921;53.256;8.198;2024-01-16T03:28:56;639.22;;;589.28;;
47161;SDS011;32921;53.256;8.198;2024-01-16T03:31:22;577.78;;;532.42;;
47161;SDS011;32921;53.256;8.198;2024-01-16T03:33:48;656.03;;;605.65;;
47161;SDS011;32921;53.256;8.198;2024-01-16T03:36:13;616.83;;;568.47;;
47161;SDS011;32921;53.256;8.198;2024-01-16T03:38:41;629.17;;;580.95;;
47161;SDS011;32921;53.256;8.198;2024-01-16T03:41:08;571.95;;;527.65;;
47161;SDS011;32921;53.256;8.198;2024-01-16T03:43:34;587.78;;;542.03;;
47161;SDS011;32921;53.256;8.198;2024-01-16T03:45:59;550.53;;;507.60;;
47161;SDS011;32921;53.256;8.198;2024-01-16T03:48:25;546.83;;;505.00;;
47161;SDS011;32921;53.256;8.198;2024-01-16T03:50:51;561.72;;;518.22;;
47161;SDS011;32921;53.256;8.198;2024-01-16T03:53:16;527.25;;;486.30;;
47161;SDS011;32921;53.256;8.198;2024-01-16T03:55:42;544.97;;;502.05;;
47161;SDS011;32921;53.256;8.198;2024-01-16T03:58:08;570.17;;;524.88;;
47161;SDS011;32921;53.256;8.198;2024-01-16T04:00:34;572.17;;;526.35;;
47161;SDS011;32921;53.256;8.198;2024-01-16T04:02:59;525.58;;;484.23;;
47161;SDS011;32921;53.256;8.198;2024-01-16T04:05:25;646.03;;;596.42;;
47161;SDS011;32921;53.256;8.198;2024-01-16T04:07:50;586.22;;;540.90;;
47161;SDS011;32921;53.256;8.198;2024-01-16T04:10:17;628.10;;;580.22;;
47161;SDS011;32921;53.256;8.198;2024-01-16T04:12:43;595.60;;;549.65;;
47161;SDS011;32921;53.256;8.198;2024-01-16T04:15:09;640.85;;;591.65;;
47161;SDS011;32921;53.256;8.198;2024-01-16T04:17:34;591.97;;;545.60;;
47161;SDS011;32921;53.256;8.198;2024-01-16T04:20:00;569.60;;;525.83;;
47161;SDS011;32921;53.256;8.198;2024-01-16T04:22:25;637.33;;;588.15;;
47161;SDS011;32921;53.256;8.198;2024-01-16T04:24:51;604.50;;;559.28;;
47161;SDS011;32921;53.256;8.198;2024-01-16T04:27:17;591.45;;;545.85;;
47161;SDS011;32921;53.256;8.198;2024-01-16T04:29:42;619.45;;;571.83;;
47161;SDS011;32921;53.256;8.198;2024-01-16T04:32:08;610.45;;;563.20;;
47161;SDS011;32921;53.256;8.198;2024-01-16T04:34:34;578.80;;;534.35;;
47161;SDS011;32921;53.256;8.198;2024-01-16T04:36:59;572.22;;;527.22;;
47161;SDS011;32921;53.256;8.198;2024-01-16T04:39:25;622.88;;;574.78;;
47161;SDS011;32921;53.256;8.198;2024-01-16T04:41:51;598.58;;;552.22;;
47161;SDS011;32921;53.256;8.198;2024-01-16T04:44:16;598.20;;;552.20;;
47161;SDS011;32921;53.256;8.198;2024-01-16T04:46:42;600.22;;;553.50;;
47161;SDS011;32921;53.256;8.198;2024-01-16T04:49:08;561.40;;;518.28;;
47161;SDS011;32921;53.256;8.198;2024-01-16T04:51:33;574.92;;;530.70;;
47161;SDS011;32921;53.256;8.198;2024-01-16T04:53:59;592.55;;;546.78;;
47161;SDS011;32921;53.256;8.198;2024-01-16T04:56:25;581.58;;;536.33;;
47161;SDS011;32921;53.256;8.198;2024-01-16T04:58:50;586.20;;;539.53;;
47161;SDS011;32921;53.256;8.198;2024-01-16T05:01:17;560.60;;;517.42;;
47161;SDS011;32921;53.256;8.198;2024-01-16T05:03:42;544.35;;;502.13;;
47161;SDS011;32921;53.256;8.198;2024-01-16T05:06:12;590.83;;;545.90;;
47161;SDS011;32921;53.256;8.198;2024-01-16T05:08:39;594.17;;;549.10;;
47161;SDS011;32921;53.256;8.198;2024-01-16T05:11:05;613.13;;;566.20;;
47161;SDS011;32921;53.256;8.198;2024-01-16T05:13:31;530.33;;;489.02;;
47161;SDS011;32921;53.256;8.198;2024-01-16T05:15:56;605.35;;;558.75;;
47161;SDS011;32921;53.256;8.198;2024-01-16T05:18:22;554.97;;;512.97;;
47161;SDS011;32921;53.256;8.198;2024-01-16T05:20:47;540.58;;;500.42;;
47161;SDS011;32921;53.256;8.198;2024-01-16T05:23:13;598.55;;;553.08;;
47161;SDS011;32921;53.256;8.198;2024-01-16T05:25:38;540.70;;;498.77;;
47161;SDS011;32921;53.256;8.198;2024-01-16T05:28:04;563.50;;;519.92;;
47161;SDS011;32921;53.256;8.198;2024-01-16T05:30:30;553.45;;;511.10;;
47161;SDS011;32921;53.256;8.198;2024-01-16T05:32:55;579.97;;;535.33;;
47161;SDS011;32921;53.256;8.198;2024-01-16T05:35:25;530.72;;;490.00;;
47161;SDS011;32921;53.256;8.198;2024-01-16T05:37:52;590.47;;;546.20;;
47161;SDS011;32921;53.256;8.198;2024-01-16T05:40:18;602.80;;;556.13;;
47161;SDS011;32921;53.256;8.198;2024-01-16T05:42:43;599.05;;;552.15;;
47161;SDS011;32921;53.256;8.198;2024-01-16T05:45:09;554.33;;;511.45;;
47161;SDS011;32921;53.256;8.198;2024-01-16T05:47:35;608.05;;;561.83;;
47161;SDS011;32921;53.256;8.198;2024-01-16T05:50:00;539.05;;;497.88;;
47161;SDS011;32921;53.256;8.198;2024-01-16T05:52:26;556.30;;;513.22;;
47161;SDS011;32921;53.256;8.198;2024-01-16T05:54:51;577.42;;;533.05;;
47161;SDS011;32921;53.256;8.198;2024-01-16T05:57:17;629.83;;;580.65;;
47161;SDS011;32921;53.256;8.198;2024-01-16T05:59:43;592.25;;;548.53;;
47161;SDS011;32921;53.256;8.198;2024-01-16T06:02:09;636.03;;;587.28;;
47161;SDS011;32921;53.256;8.198;2024-01-16T06:04:35;649.90;;;601.20;;
47161;SDS011;32921;53.256;8.198;2024-01-16T06:07:01;601.25;;;555.30;;
47161;SDS011;32921;53.256;8.198;2024-01-16T06:09:30;598.03;;;552.63;;
47161;SDS011;32921;53.256;8.198;2024-01-16T06:11:57;617.72;;;569.80;;
47161;SDS011;32921;53.256;8.198;2024-01-16T06:14:22;581.72;;;536.53;;
47161;SDS011;32921;53.256;8.198;2024-01-16T06:16:48;607.65;;;561.60;;
47161;SDS011;32921;53.256;8.198;2024-01-16T06:19:14;617.38;;;570.80;;
47161;SDS011;32921;53.256;8.198;2024-01-16T06:21:41;562.33;;;520.03;;
47161;SDS011;32921;53.256;8.198;2024-01-16T06:24:06;605.22;;;559.88;;
47161;SDS011;32921;53.256;8.198;2024-01-16T06:26:32;609.10;;;564.22;;
47161;SDS011;32921;53.256;8.198;2024-01-16T06:28:58;574.00;;;530.60;;
47161;SDS011;32921;53.256;8.198;2024-01-16T06:31:24;586.67;;;543.30;;
47161;SDS011;32921;53.256;8.198;2024-01-16T06:33:51;543.25;;;502.98;;
47161;SDS011;32921;53.256;8.198;2024-01-16T06:36:17;594.05;;;549.72;;
47161;SDS011;32921;53.256;8.198;2024-01-16T06:38:42;632.67;;;584.97;;
47161;SDS011;32921;53.256;8.198;2024-01-16T06:41:08;600.00;;;555.15;;
47161;SDS011;32921;53.256;8.198;2024-01-16T06:43:34;619.75;;;572.63;;
47161;SDS011;32921;53.256;8.198;2024-01-16T06:45:59;591.67;;;547.63;;
47161;SDS011;32921;53.256;8.198;2024-01-16T06:48:25;574.58;;;531.35;;
47161;SDS011;32921;53.256;8.198;2024-01-16T06:50:51;598.05;;;553.97;;
47161;SDS011;32921;53.256;8.198;2024-01-16T06:53:17;564.55;;;522.55;;
47161;SDS011;32921;53.256;8.198;2024-01-16T06:55:42;603.72;;;558.75;;
47161;SDS011;32921;53.256;8.198;2024-01-16T06:58:08;533.95;;;494.17;;
47161;SDS011;32921;53.256;8.198;2024-01-16T07:00:35;571.60;;;530.33;;
47161;SDS011;32921;53.256;8.198;2024-01-16T07:03:00;600.38;;;555.92;;
47161;SDS011;32921;53.256;8.198;2024-01-16T07:05:27;595.85;;;551.40;;
47161;SDS011;32921;53.256;8.198;2024-01-16T07:07:54;638.15;;;590.92;;
47161;SDS011;32921;53.256;8.198;2024-01-16T07:10:20;611.47;;;565.42;;
47161;SDS011;32921;53.256;8.198;2024-01-16T07:12:47;588.88;;;544.92;;
47161;SDS011;32921;53.256;8.198;2024-01-16T07:15:14;600.30;;;555.95;;
47161;SDS011;32921;53.256;8.198;2024-01-16T07:17:40;588.85;;;544.05;;
47161;SDS011;32921;53.256;8.198;2024-01-16T07:20:06;587.72;;;543.30;;
47161;SDS011;32921;53.256;8.198;2024-01-16T07:22:32;631.70;;;584.58;;
47161;SDS011;32921;53.256;8.198;2024-01-16T07:24:59;609.92;;;565.28;;
47161;SDS011;32921;53.256;8.198;2024-01-16T07:27:25;567.80;;;526.20;;
47161;SDS011;32921;53.256;8.198;2024-01-16T07:29:50;667.55;;;617.65;;
47161;SDS011;32921;53.256;8.198;2024-01-16T07:32:16;564.53;;;523.10;;
47161;SDS011;32921;53.256;8.198;2024-01-16T07:34:42;593.55;;;548.65;;
47161;SDS011;32921;53.256;8.198;2024-01-16T07:37:08;585.40;;;540.90;;
47161;SDS011;32921;53.256;8.198;2024-01-16T07:39:33;594.60;;;550.53;;
47161;SDS011;32921;53.256;8.198;2024-01-16T07:41:59;585.50;;;541.90;;
47161;SDS011;32921;53.256;8.198;2024-01-16T07:44:25;626.28;;;579.50;;
47161;SDS011;32921;53.256;8.198;2024-01-16T07:46:51;605.88;;;560.80;;
47161;SDS011;32921;53.256;8.198;2024-01-16T07:49:17;596.72;;;552.88;;
47161;SDS011;32921;53.256;8.198;2024-01-16T07:51:42;629.80;;;582.10;;
47161;SDS011;32921;53.256;8.198;2024-01-16T07:54:08;615.22;;;569.08;;
47161;SDS011;32921;53.256;8.198;2024-01-16T07:56:36;564.75;;;523.13;;
47161;SDS011;32921;53.256;8.198;2024-01-16T07:59:02;599.90;;;555.42;;
47161;SDS011;32921;53.256;8.198;2024-01-16T08:01:28;583.55;;;540.58;;
47161;SDS011;32921;53.256;8.198;2024-01-16T08:03:56;583.92;;;541.88;;
47161;SDS011;32921;53.256;8.198;2024-01-16T08:06:22;561.30;;;518.78;;
47161;SDS011;32921;53.256;8.198;2024-01-16T08:08:48;534.00;;;493.77;;
47161;SDS011;32921;53.256;8.198;2024-01-16T08:11:15;554.90;;;514.17;;
47161;SDS011;32921;53.256;8.198;2024-01-16T08:13:41;530.80;;;492.02;;
47161;SDS011;32921;53.256;8.198;2024-01-16T08:16:07;552.70;;;512.15;;
47161;SDS011;32921;53.256;8.198;2024-01-16T08:18:36;525.33;;;486.13;;
47161;SDS011;32921;53.256;8.198;2024-01-16T08:21:01;527.75;;;488.88;;
47161;SDS011;32921;53.256;8.198;2024-01-16T08:23:27;568.72;;;524.83;;
47161;SDS011;32921;53.256;8.198;2024-01-16T08:25:53;571.05;;;527.45;;
47161;SDS011;32921;53.256;8.198;2024-01-16T08:28:18;560.75;;;519.30;;
47161;SDS011;32921;53.256;8.198;2024-01-16T08:30:44;577.30;;;532.85;;
47161;SDS011;32921;53.256;8.198;2024-01-16T08:33:11;570.35;;;526.92;;
47161;SDS011;32921;53.256;8.198;2024-01-16T08:35:37;547.33;;;506.25;;
47161;SDS011;32921;53.256;8.198;2024-01-16T08:38:03;588.88;;;544.55;;
47161;SDS011;32921;53.256;8.198;2024-01-16T08:40:29;581.65;;;537.58;;
47161;SDS011;32921;53.256;8.198;2024-01-16T08:42:55;563.03;;;520.17;;
47161;SDS011;32921;53.256;8.198;2024-01-16T08:45:21;546.90;;;505.63;;
47161;SDS011;32921;53.256;8.198;2024-01-16T08:47:47;560.65;;;516.75;;
47161;SDS011;32921;53.256;8.198;2024-01-16T08:50:12;565.10;;;521.78;;
47161;SDS011;32921;53.256;8.198;2024-01-16T08:52:39;523.20;;;482.63;;
47161;SDS011;32921;53.256;8.198;2024-01-16T08:55:05;610.38;;;562.63;;
47161;SDS011;32921;53.256;8.198;2024-01-16T08:57:30;553.65;;;511.92;;
47161;SDS011;32921;53.256;8.198;2024-01-16T08:59:56;510.65;;;470.83;;
47161;SDS011;32921;53.256;8.198;2024-01-16T09:02:22;498.48;;;459.55;;
47161;SDS011;32921;53.256;8.198;2024-01-16T09:04:49;544.20;;;501.40;;
47161;SDS011;32921;53.256;8.198;2024-01-16T09:07:15;497.08;;;459.05;;
47161;SDS011;32921;53.256;8.198;2024-01-16T09:09:41;517.17;;;477.52;;
47161;SDS011;32921;53.256;8.198;2024-01-16T09:12:07;553.95;;;510.45;;
47161;SDS011;32921;53.256;8.198;2024-01-16T09:14:34;529.97;;;487.15;;
47161;SDS011;32921;53.256;8.198;2024-01-16T09:16:59;571.63;;;527.40;;
47161;SDS011;32921;53.256;8.198;2024-01-16T09:19:25;514.78;;;475.13;;
47161;SDS011;32921;53.256;8.198;2024-01-16T09:21:51;544.38;;;500.70;;
47161;SDS011;32921;53.256;8.198;2024-01-16T09:24:17;478.73;;;441.70;;
47161;SDS011;32921;53.256;8.198;2024-01-16T09:26:43;513.58;;;473.90;;
47161;SDS011;32921;53.256;8.198;2024-01-16T09:29:09;457.80;;;423.00;;
47161;SDS011;32921;53.256;8.198;2024-01-16T09:31:35;467.90;;;431.77;;
47161;SDS011;32921;53.256;8.198;2024-01-16T09:34:02;459.70;;;423.20;;
47161;SDS011;32921;53.256;8.198;2024-01-16T09:36:28;461.25;;;425.63;;
47161;SDS011;32921;53.256;8.198;2024-01-16T09:38:54;434.95;;;401.77;;
47161;SDS011;32921;53.256;8.198;2024-01-16T09:41:20;386.77;;;358.58;;
47161;SDS011;32921;53.256;8.198;2024-01-16T09:43:46;385.27;;;357.35;;
47161;SDS011;32921;53.256;8.198;2024-01-16T09:46:13;405.33;;;375.83;;
47161;SDS011;32921;53.256;8.198;2024-01-16T09:48:41;409.40;;;379.40;;
47161;SDS011;32921;53.256;8.198;2024-01-16T09:51:09;412.08;;;381.58;;
47161;SDS011;32921;53.256;8.198;2024-01-16T09:53:39;438.73;;;405.42;;
47161;SDS011;32921;53.256;8.198;2024-01-16T09:56:09;434.38;;;402.05;;
47161;SDS011;32921;53.256;8.198;2024-01-16T09:58:42;416.05;;;385.95;;
47161;SDS011;32921;53.256;8.198;2024-01-16T10:01:09;447.63;;;414.67;;
47161;SDS011;32921;53.256;8.198;2024-01-16T10:03:37;407.85;;;378.73;;
47161;SDS011;32921;53.256;8.198;2024-01-16T10:06:04;369.65;;;343.52;;
47161;SDS011;32921;53.256;8.198;2024-01-16T10:08:31;455.75;;;420.67;;
47161;SDS011;32921;53.256;8.198;2024-01-16T10:10:57;458.38;;;422.95;;
47161;SDS011;32921;53.256;8.198;2024-01-16T10:13:23;430.98;;;398.40;;
47161;SDS011;32921;53.256;8.198;2024-01-16T10:15:50;418.42;;;386.45;;
47161;SDS011;32921;53.256;8.198;2024-01-16T10:18:27;442.05;;;408.63;;
47161;SDS011;32921;53.256;8.198;2024-01-16T10:20:58;398.23;;;369.70;;
47161;SDS011;32921;53.256;8.198;2024-01-16T10:23:25;363.80;;;338.77;;
47161;SDS011;32921;53.256;8.198;2024-01-16T10:26:11;364.15;;;339.20;;
47161;SDS011;32921;53.256;8.198;2024-01-16T10:28:40;347.75;;;323.35;;
47161;SDS011;32921;53.256;8.198;2024-01-16T10:31:08;398.20;;;369.95;;
47161;SDS011;32921;53.256;8.198;2024-01-16T10:33:35;358.98;;;333.50;;
47161;SDS011;32921;53.256;8.198;2024-01-16T10:36:08;355.42;;;331.92;;
47161;SDS011;32921;53.256;8.198;2024-01-16T10:38:37;405.25;;;375.38;;
47161;SDS011;32921;53.256;8.198;2024-01-16T10:41:10;369.35;;;343.85;;
47161;SDS011;32921;53.256;8.198;2024-01-16T10:43:39;337.00;;;314.70;;
47161;SDS011;32921;53.256;8.198;2024-01-16T10:46:09;366.13;;;341.35;;
47161;SDS011;32921;53.256;8.198;2024-01-16T10:48:40;370.27;;;344.77;;
47161;SDS011;32921;53.256;8.198;2024-01-16T10:51:16;363.48;;;338.75;;
47161;SDS011;32921;53.256;8.198;2024-01-16T10:53:43;339.55;;;315.90;;
47161;SDS011;32921;53.256;8.198;2024-01-16T10:56:12;318.30;;;298.00;;
47161;SDS011;32921;53.256;8.198;2024-01-16T10:58:39;332.40;;;310.60;;
47161;SDS011;32921;53.256;8.198;2024-01-16T11:01:09;336.42;;;313.15;;
47161;SDS011;32921;53.256;8.198;2024-01-16T11:03:46;332.45;;;310.88;;
47161;SDS011;32921;53.256;8.198;2024-01-16T11:06:17;350.20;;;325.40;;
47161;SDS011;32921;53.256;8.198;2024-01-16T11:08:47;352.05;;;327.20;;
47161;SDS011;32921;53.256;8.198;2024-01-16T11:11:14;362.75;;;337.70;;
47161;SDS011;32921;53.256;8.198;2024-01-16T11:13:40;333.40;;;310.65;;
47161;SDS011;32921;53.256;8.198;2024-01-16T11:16:10;358.75;;;333.48;;
47161;SDS011;32921;53.256;8.198;2024-01-16T11:18:36;366.67;;;340.45;;
47161;SDS011;32921;53.256;8.198;2024-01-16T11:21:15;383.30;;;356.33;;
47161;SDS011;32921;53.256;8.198;2024-01-16T11:23:41;368.88;;;343.20;;
47161;SDS011;32921;53.256;8.198;2024-01-16T11:28:59;401.77;;;372.65;;
47161;SDS011;32921;53.256;8.198;2024-01-16T11:31:29;308.98;;;289.10;;
47161;SDS011;32921;53.256;8.198;2024-01-16T11:33:56;355.15;;;331.30;;
47161;SDS011;32921;53.256;8.198;2024-01-16T11:39:23;373.98;;;347.27;;
47161;SDS011;32921;53.256;8.198;2024-01-16T11:41:51;351.05;;;326.95;;
47161;SDS011;32921;53.256;8.198;2024-01-16T11:47:22;405.42;;;374.70;;
47161;SDS011;32921;53.256;8.198;2024-01-16T11:49:49;371.02;;;344.45;;
47161;SDS011;32921;53.256;8.198;2024-01-16T11:53:02;365.30;;;340.25;;
47161;SDS011;32921;53.256;8.198;2024-01-16T11:57:55;572.00;;;529.78;;
47161;SDS011;32921;53.256;8.198;2024-01-16T12:00:41;495.88;;;459.42;;
47161;SDS011;32921;53.256;8.198;2024-01-16T12:03:09;422.42;;;392.10;;
47161;SDS011;32921;53.256;8.198;2024-01-16T12:05:38;366.40;;;341.63;;
47161;SDS011;32921;53.256;8.198;2024-01-16T12:08:04;336.50;;;314.38;;
47161;SDS011;32921;53.256;8.198;2024-01-16T12:10:31;360.50;;;335.98;;
47161;SDS011;32921;53.256;8.198;2024-01-16T12:12:58;349.73;;;326.98;;
47161;SDS011;32921;53.256;8.198;2024-01-16T12:15:24;340.45;;;318.48;;
47161;SDS011;32921;53.256;8.198;2024-01-16T12:17:53;345.10;;;322.17;;
47161;SDS011;32921;53.256;8.198;2024-01-16T12:20:20;358.08;;;333.83;;
47161;SDS011;32921;53.256;8.198;2024-01-16T12:22:51;348.27;;;324.25;;
47161;SDS011;32921;53.256;8.198;2024-01-16T12:25:21;379.25;;;353.30;;
47161;SDS011;32921;53.256;8.198;2024-01-16T12:27:53;338.63;;;316.65;;
47161;SDS011;32921;53.256;8.198;2024-01-16T12:30:25;304.35;;;285.45;;
47161;SDS011;32921;53.256;8.198;2024-01-16T12:33:02;348.77;;;325.67;;
47161;SDS011;32921;53.256;8.198;2024-01-16T12:38:03;352.58;;;329.30;;
47161;SDS011;32921;53.256;8.198;2024-01-16T12:40:36;326.27;;;305.75;;
47161;SDS011;32921;53.256;8.198;2024-01-16T12:43:20;375.70;;;349.70;;
47161;SDS011;32921;53.256;8.198;2024-01-16T12:45:46;371.02;;;345.83;;
47161;SDS011;32921;53.256;8.198;2024-01-16T12:48:22;352.92;;;330.08;;
47161;SDS011;32921;53.256;8.198;2024-01-16T12:50:48;341.85;;;318.58;;
47161;SDS011;32921;53.256;8.198;2024-01-16T12:53:14;311.75;;;292.00;;
47161;SDS011;32921;53.256;8.198;2024-01-16T12:55:41;383.70;;;357.67;;
47161;SDS011;32921;53.256;8.198;2024-01-16T12:58:17;337.63;;;315.63;;
47161;SDS011;32921;53.256;8.198;2024-01-16T13:00:47;364.40;;;339.67;;
47161;SDS011;32921;53.256;8.198;2024-01-16T13:03:17;341.75;;;319.15;;
47161;SDS011;32921;53.256;8.198;2024-01-16T13:05:44;351.98;;;328.20;;
47161;SDS011;32921;53.256;8.198;2024-01-16T13:08:18;359.35;;;335.55;;
47161;SDS011;32921;53.256;8.198;2024-01-16T13:11:01;348.17;;;325.02;;
47161;SDS011;32921;53.256;8.198;2024-01-16T13:13:30;352.73;;;329.75;;
47161;SDS011;32921;53.256;8.198;2024-01-16T13:15:57;342.98;;;320.17;;
47161;SDS011;32921;53.256;8.198;2024-01-16T13:18:25;348.30;;;324.90;;
47161;SDS011;32921;53.256;8.198;2024-01-16T13:20:52;364.58;;;340.55;;
47161;SDS011;32921;53.256;8.198;2024-01-16T13:23:19;352.75;;;329.42;;
47161;SDS011;32921;53.256;8.198;2024-01-16T13:25:46;368.58;;;343.17;;
47161;SDS011;32921;53.256;8.198;2024-01-16T13:28:13;368.38;;;342.90;;
47161;SDS011;32921;53.256;8.198;2024-01-16T13:30:42;367.23;;;342.27;;
47161;SDS011;32921;53.256;8.198;2024-01-16T13:33:09;349.90;;;326.00;;
47161;SDS011;32921;53.256;8.198;2024-01-16T13:35:35;374.00;;;348.52;;
47161;SDS011;32921;53.256;8.198;2024-01-16T13:38:02;330.75;;;309.45;;
47161;SDS011;32921;53.256;8.198;2024-01-16T13:40:29;332.88;;;311.23;;
47161;SDS011;32921;53.256;8.198;2024-01-16T13:42:55;390.23;;;362.35;;
47161;SDS011;32921;53.256;8.198;2024-01-16T13:45:20;351.55;;;326.95;;
47161;SDS011;32921;53.256;8.198;2024-01-16T13:47:46;330.05;;;307.88;;
47161;SDS011;32921;53.256;8.198;2024-01-16T13:50:12;332.77;;;310.80;;
47161;SDS011;32921;53.256;8.198;2024-01-16T13:52:38;314.77;;;294.58;;
47161;SDS011;32921;53.256;8.198;2024-01-16T13:55:06;333.58;;;311.73;;
47161;SDS011;32921;53.256;8.198;2024-01-16T13:57:32;340.27;;;316.70;;
47161;SDS011;32921;53.256;8.198;2024-01-16T14:00:08;375.52;;;350.13;;
47161;SDS011;32921;53.256;8.198;2024-01-16T14:02:41;347.13;;;322.52;;
47161;SDS011;32921;53.256;8.198;2024-01-16T14:05:11;374.70;;;347.45;;
47161;SDS011;32921;53.256;8.198;2024-01-16T14:07:50;416.15;;;385.35;;
47161;SDS011;32921;53.256;8.198;2024-01-16T14:10:17;429.75;;;396.92;;
47161;SDS011;32921;53.256;8.198;2024-01-16T14:12:45;371.13;;;344.50;;